Bradford, Ohio
Current Conditions -  °F | °C
As of 5:15 AM on Friday 19 Dec 2014 (Local Time) from KVES Reporting Station
Overcast Overcast  
Wind Chill: 20°   Ceiling: 2200
Heat Index: 27°   Visibility: 10mi
Dew Point: 25°   Wind: 6mph
Humidity: 93%   Direction: 270°W
Pressure: 30.22"   Gusts: NA
Location:  40.13°N, 84.43°W
Report Text: KVES 191015Z AUTO 27005KT 10SM OVC022 M03/M04 A3022 RMK AO2
Loading
Personal Weather Stations






























Interactive Weather Map New forecast layout! Learn more

10-Day Weather Forecast

Advertisements
Track Severe Weather on mobile